Latest Weather Observations for Charleville

IDQ60801

Issued at 3:02 pm EST Wednesday 29 June 2016 (issued every 30 minutes, with the page automatically refreshed every 10 minutes)

About weather observations | Map of weather stations | Latest weather observations for QLD | Other Formats
Station Details ID: 044021 Name: CHARLEVILLE AERO Lat: -26.41 Lon: 146.26 Height: 301.6 m
Data from the previous 72 hours. | See also: Recent months at Charleville
Date/Time
EST
Temp
°C
App
Temp
°C
Dew
Point
°C
Rel
Hum
%
Delta-T
°C
Wind Press
QNH
hPa
Press
MSL
hPa
Rain since
9am
mm
Dir  Spd
km/h
Gust
km/h
Spd
kts
Gust
kts
29/03:00pm 16.1 12.3 1.9 38 6.4 ESE 11 17 6 9 1024.4 1024.6 0.0
29/02:30pm 15.5 11.8 2.2 40 6.0 ESE 11 19 6 10 1024.5 - 0.0
29/02:00pm 15.2 11.6 3.0 44 5.6 ESE 11 17 6 9 1024.9 - 0.0
29/01:30pm 14.5 10.5 2.9 45 5.3 SSE 13 17 7 9 1025.3 - 0.0
29/01:00pm 14.2 10.2 2.8 46 5.2 ESE 13 20 7 11 1025.9 - 0.0
29/12:30pm 14.4 10.9 3.6 48 5.0 ESE 11 17 6 9 1026.5 - 0.0
29/12:00pm 13.5 9.6 3.2 49 4.6 SE 13 19 7 10 1027.1 1027.3 0.0
29/11:30am 13.0 8.6 2.7 49 4.6 SE 15 20 8 11 1027.5 - 0.0
29/11:00am 12.2 8.6 3.1 53 4.1 E 11 17 6 9 1028.0 - 0.0
29/10:30am 11.4 7.2 3.6 58 3.5 ESE 15 22 8 12 1028.3 - 0.0
29/10:00am 10.4 5.7 3.4 62 3.1 E 17 28 9 15 1028.5 - 0.0
29/09:30am 9.3 5.8 3.7 68 2.5 E 11 19 6 10 1028.5 - 0.0
29/09:00am 7.8 4.3 3.6 75 1.8 ENE 11 15 6 8 1028.2 1028.4 0.0
29/08:30am 6.1 4.7 3.4 83 1.2 CALM 0 7 0 4 1028.2 - 0.0
29/08:00am 3.8 2.2 2.2 89 0.6 CALM 0 0 0 0 1028.1 - 0.0
29/07:30am 1.8 -0.1 0.8 93 0.4 CALM 0 7 0 4 1027.8 - 0.0
29/07:00am 1.1 -2.0 0.4 95 0.3 ENE 6 11 3 6 1027.6 - 0.0
29/06:30am 0.7 -1.2 0.4 98 0.1 CALM 0 0 0 0 1027.2 - 0.0
29/06:00am 0.4 -1.6 0.1 98 0.1 CALM 0 0 0 0 1027.2 1027.4 0.0
29/05:30am 0.8 -1.1 0.4 97 0.1 CALM 0 0 0 0 1027.2 - 0.0
29/05:00am 1.0 -0.9 0.6 97 0.2 CALM 0 0 0 0 1027.0 - 0.0
29/04:30am 1.2 -0.7 0.8 97 0.2 CALM 0 0 0 0 1026.7 - 0.0
29/04:00am 1.5 -0.3 1.0 96 0.2 CALM 0 0 0 0 1026.7 - 0.0
29/03:30am 1.5 -0.3 1.1 97 0.2 CALM 0 0 0 0 1026.9 - 0.0
29/03:00am 1.8 0.0 1.4 97 0.2 CALM 0 0 0 0 1027.0 1027.2 0.0
29/02:30am 2.1 0.4 1.7 97 0.2 CALM 0 7 0 4 1027.3 - 0.0
29/02:00am 2.5 0.8 1.9 96 0.2 CALM 0 0 0 0 1027.4 - 0.0
29/01:30am 2.9 1.3 2.3 96 0.2 CALM 0 0 0 0 1027.5 - 0.0
29/01:00am 3.6 2.0 2.7 94 0.4 CALM 0 4 0 2 1027.6 - 0.0
29/12:30am 3.9 0.3 2.8 92 0.5 ESE 11 11 6 6 1027.7 - 0.0
29/12:00am 3.9 1.0 2.8 92 0.4 SE 7 9 4 5 1028.1 1028.3 0.0
 
Date/Time
EST
Temp
°C
App
Temp
°C
Dew
Point
°C
Rel
Hum
%
Delta-T
°C
Wind Press
QNH
hPa
Press
MSL
hPa
Rain since
9am
mm
Dir  Spd
km/h
Gust
km/h
Spd
kts
Gust
kts
28/11:30pm 3.8 2.3 3.0 94 0.3 CALM 0 0 0 0 1028.2 - 0.0
28/11:00pm 4.2 1.0 3.1 92 0.5 S 9 9 5 5 1028.4 - 0.0
28/10:30pm 4.4 3.0 3.3 93 0.5 CALM 0 0 0 0 1028.8 - 0.0
28/10:00pm 4.9 2.4 3.7 92 0.5 S 6 7 3 4 1028.8 - 0.0
28/09:30pm 5.4 2.7 3.6 88 0.8 S 7 9 4 5 1028.9 - 0.0
28/09:00pm 6.5 3.8 3.7 82 1.2 SE 7 7 4 4 1028.8 1028.9 0.0
28/08:30pm 7.5 4.4 3.4 75 1.8 SE 9 11 5 6 1028.4 - 0.0
28/08:00pm 8.3 4.7 3.2 70 2.2 SE 11 13 6 7 1028.3 - 0.0
28/07:30pm 8.5 5.0 3.3 70 2.3 SSE 11 13 6 7 1028.2 - 0.0
28/07:00pm 9.0 5.8 3.3 67 2.5 SSE 9 11 5 6 1027.9 - 0.0
28/06:30pm 9.3 6.2 3.8 68 2.4 SSE 9 11 5 6 1027.4 - 0.0
28/06:00pm 10.6 7.4 3.0 59 3.3 S 9 11 5 6 1027.0 1027.2 0.0
28/05:30pm 11.9 7.8 2.4 52 4.2 S 13 17 7 9 1026.7 - 0.0
28/05:00pm 13.0 9.0 2.6 49 4.6 S 13 26 7 14 1026.5 - 0.0
28/04:30pm 13.5 8.6 1.7 44 5.2 S 17 26 9 14 1026.3 - 0.0
28/04:00pm 13.7 8.4 1.8 44 5.3 SSE 19 28 10 15 1026.0 - 0.0
28/03:30pm 13.8 8.4 1.5 43 5.4 SSE 19 26 10 14 1025.9 - 0.0
28/03:00pm 13.8 8.9 1.8 44 5.3 SSE 17 26 9 14 1025.7 1025.8 0.0
28/02:30pm 13.9 8.4 2.0 44 5.3 SSE 20 30 11 16 1025.7 - 0.0
28/02:00pm 13.5 8.2 1.8 45 5.2 SE 19 26 10 14 1025.8 - 0.0
28/01:30pm 12.9 7.9 1.6 46 4.9 SSE 17 26 9 14 1026.0 - 0.0
28/01:00pm 13.0 7.6 1.5 45 5.0 SSE 19 30 10 16 1026.5 - 0.0
28/12:30pm 12.5 7.2 1.9 48 4.6 SE 19 28 10 15 1026.7 - 0.0
28/12:00pm 12.4 6.9 2.0 49 4.5 SE 20 30 11 16 1027.1 1027.3 0.0
28/11:30am 12.0 6.5 1.8 49 4.4 SE 20 28 11 15 1027.5 - 0.0
28/11:00am 11.5 5.6 1.5 50 4.3 SE 22 30 12 16 1027.8 - 0.0
28/10:30am 10.8 4.4 1.1 51 4.1 SE 24 32 13 17 1027.7 - 0.0
28/10:00am 10.7 5.8 2.1 55 3.7 SE 17 26 9 14 1027.8 - 0.0
28/09:30am 10.2 4.9 2.8 60 3.2 SSE 20 28 11 15 1027.7 - 0.0
28/09:00am 8.8 4.4 2.8 66 2.6 SE 15 19 8 10 1027.5 1027.7 0.0
28/08:30am 7.2 3.6 3.1 75 1.8 SSE 11 13 6 7 1027.3 - 0.0
28/08:00am 4.8 3.0 3.3 90 0.6 SSE 2 7 1 4 1027.1 - 0.0
28/07:30am 2.3 0.6 1.6 95 0.3 CALM 0 0 0 0 1026.8 - 0.0
28/07:00am 2.0 0.3 1.6 97 0.2 CALM 0 0 0 0 1026.5 - 0.0
28/06:30am 2.3 0.6 1.8 96 0.2 CALM 0 0 0 0 1026.1 - 0.0
28/06:00am 2.5 0.8 1.9 96 0.2 CALM 0 0 0 0 1025.7 1025.8 0.0
28/05:30am 2.6 0.9 1.8 94 0.3 CALM 0 0 0 0 1025.4 - 0.0
28/05:00am 2.9 1.3 2.2 95 0.3 CALM 0 0 0 0 1025.0 - 0.0
28/04:30am 3.4 1.8 2.3 92 0.4 CALM 0 0 0 0 1025.0 - 0.0
28/04:00am 3.9 2.3 2.7 92 0.5 CALM 0 0 0 0 1025.3 - 0.0
28/03:30am 4.6 3.0 2.7 87 0.8 CALM 0 0 0 0 1024.9 - 0.0
28/03:00am 5.6 2.8 2.3 79 1.4 SSE 6 7 3 4 1024.9 1025.1 0.0
28/02:30am 7.2 3.8 2.1 70 2.1 S 9 13 5 7 1024.9 - 0.0
28/02:00am 8.3 2.9 1.4 62 2.9 S 19 26 10 14 1025.2 - 0.0
28/01:30am 8.7 3.8 1.8 62 2.9 S 17 22 9 12 1025.3 - 0.0
28/01:00am 8.7 4.9 1.8 62 2.9 S 11 15 6 8 1025.3 - 0.0
28/12:30am 8.7 4.2 1.9 62 2.9 S 15 26 8 14 1025.3 - 0.0
28/12:00am 8.6 5.2 2.1 63 2.7 S 9 11 5 6 1025.5 1025.6 0.0
 
Date/Time
EST
Temp
°C
App
Temp
°C
Dew
Point
°C
Rel
Hum
%
Delta-T
°C
Wind Press
QNH
hPa
Press
MSL
hPa
Rain since
9am
mm
Dir  Spd
km/h
Gust
km/h
Spd
kts
Gust
kts
27/11:30pm 8.4 5.1 2.4 66 2.6 SSE 9 11 5 6 1025.6 - 0.0
27/11:00pm 8.3 5.0 2.4 66 2.5 S 9 13 5 7 1025.5 - 0.0
27/10:30pm 8.4 4.6 2.0 64 2.7 SSE 11 13 6 7 1025.3 - 0.0
27/10:00pm 8.6 4.8 2.0 63 2.8 S 11 15 6 8 1025.3 - 0.0
27/09:30pm 8.7 4.7 2.6 65 2.6 S 13 17 7 9 1025.0 - 0.0
27/09:00pm 9.1 4.8 3.3 67 2.5 S 15 22 8 12 1024.8 1025.0 0.0
27/08:30pm 9.3 4.4 3.9 69 2.4 S 19 28 10 15 1024.6 - 0.0
27/08:00pm 9.0 6.5 5.0 76 1.8 SSW 7 9 4 5 1024.1 - 0.0
27/07:30pm 9.1 6.6 4.7 74 2.0 SSW 7 9 4 5 1023.8 - 0.0
27/07:00pm 9.2 6.7 4.6 73 2.1 SSW 7 11 4 6 1023.4 - 0.0
27/06:30pm 9.3 6.4 4.8 73 2.0 SSW 9 13 5 7 1023.0 - 0.0
27/06:00pm 9.6 6.6 4.3 69 2.4 SSW 9 11 5 6 1022.7 1022.8 0.0
27/05:30pm 9.8 6.7 3.6 65 2.8 SW 9 11 5 6 1022.1 - 0.0
27/05:00pm 10.1 7.0 3.8 65 2.8 SSW 9 13 5 7 1021.9 - 0.0
27/04:30pm 10.3 5.9 2.9 60 3.2 SW 15 22 8 12 1021.5 - 0.0
27/04:00pm 10.8 6.8 3.1 59 3.4 SSW 13 26 7 14 1021.4 - 0.0
27/03:30pm 10.8 6.8 2.9 58 3.5 SW 13 20 7 11 1021.1 - 0.0
27/03:00pm 10.3 6.7 3.0 60 3.2 SSW 11 20 6 11 1021.1 1021.3 0.0
27/02:30pm 10.7 6.5 3.9 63 3.1 SSW 15 24 8 13 1020.9 - 0.0
27/02:00pm 10.5 6.8 4.4 66 2.8 SSW 13 19 7 10 1020.8 - 0.0
27/01:30pm 9.9 5.9 5.0 71 2.2 SSW 15 22 8 12 1020.9 - 0.0
27/01:00pm 10.3 5.9 5.0 69 2.4 SW 17 28 9 15 1020.9 - 0.0
27/12:30pm 10.0 5.2 4.8 70 2.4 SSW 19 28 10 15 1021.3 - 0.0
27/12:00pm 10.0 6.5 5.5 73 2.1 SSW 13 19 7 10 1021.5 1021.7 0.0
27/11:30am 9.8 5.6 5.7 75 1.9 SSW 17 22 9 12 1021.7 - 0.0
27/11:00am 9.8 6.0 5.8 76 1.9 SSW 15 20 8 11 1021.8 - 0.0
27/10:30am 9.8 5.5 5.1 72 2.2 SW 17 28 9 15 1021.8 - 0.0
27/10:00am 9.3 5.0 5.4 76 1.8 SSW 17 30 9 16 1021.5 - 0.0
27/09:44am 9.4 5.2 5.9 79 1.6 S 17 26 9 14 1021.3 - 0.0
27/09:31am 9.3 5.7 6.8 84 1.2 SSW 15 24 8 13 1021.2 - 0.0
27/09:30am 9.3 5.7 6.8 84 1.2 SSW 15 24 8 13 1021.2 - 0.0
27/09:00am 9.2 5.5 6.5 83 1.3 SW 15 24 8 13 1020.9 1021.1 5.2
27/08:30am 9.5 6.3 6.8 83 1.3 SW 13 20 7 11 1020.6 - 5.2
27/08:00am 9.0 6.7 7.6 91 0.7 SW 9 15 5 8 1020.2 - 5.2
27/07:58am 9.0 6.4 7.6 91 0.7 SW 11 15 6 8 1020.1 - 5.2
27/07:30am 8.8 6.5 7.4 91 0.7 SW 9 15 5 8 1019.7 - 5.2
27/07:23am 8.8 6.5 7.3 90 0.7 SW 9 13 5 7 1019.7 - 5.2
27/07:10am 8.8 5.7 7.2 90 0.8 SW 13 15 7 8 1019.5 - 5.2
27/07:00am 8.8 5.7 7.3 90 0.7 SW 13 19 7 10 1019.4 - 5.2
27/06:37am 9.0 5.6 7.5 90 0.7 SW 15 22 8 12 1019.1 - 5.2
27/06:30am 9.1 5.8 7.9 92 0.6 SW 15 20 8 11 1019.0 - 5.2
27/06:00am 9.3 6.8 8.3 93 0.5 WSW 11 15 6 8 1018.6 1018.7 5.2
27/05:58am 9.3 6.8 8.3 93 0.5 WSW 11 15 6 8 1018.5 - 5.2
27/05:53am 9.2 6.7 8.3 94 0.4 WSW 11 15 6 8 1018.4 - 5.2
27/05:30am 9.4 6.2 8.4 93 0.5 WSW 15 20 8 11 1017.9 - 5.2
27/05:24am 9.4 6.2 8.4 93 0.5 WSW 15 20 8 11 1017.8 - 5.2
27/05:00am 9.6 7.2 8.7 94 0.4 WSW 11 19 6 10 1017.5 - 5.2
27/04:30am 9.7 7.3 8.7 93 0.5 WSW 11 17 6 9 1017.4 - 5.2
27/04:15am 9.8 7.5 8.9 94 0.4 WSW 11 17 6 9 1017.4 - 5.2
27/04:00am 9.8 7.9 9.2 96 0.3 WSW 9 15 5 8 1017.3 - 5.2
27/03:30am 9.7 7.8 9.2 97 0.3 W 9 13 5 7 1017.4 - 5.2
27/03:00am 9.6 8.1 9.2 97 0.2 W 7 11 4 6 1017.2 1017.3 5.2
27/02:30am 9.6 8.7 9.1 97 0.3 W 4 9 2 5 1017.2 - 5.2
27/02:00am 9.6 8.1 9.1 97 0.3 W 7 9 4 5 1017.4 - 5.2
27/01:49am 9.5 8.0 9.0 97 0.2 W 7 11 4 6 1017.3 - 5.2
27/01:30am 9.6 7.7 9.0 96 0.3 WSW 9 13 5 7 1017.4 - 5.0
27/01:00am 9.8 8.3 9.3 97 0.3 W 7 9 4 5 1017.3 - 5.0
27/12:48am 9.8 8.5 9.2 96 0.3 WNW 6 9 3 5 1017.1 - 5.0
27/12:30am 10.0 8.2 9.4 96 0.3 WSW 9 11 5 6 1017.2 - 5.0
27/12:16am 10.0 7.8 9.5 97 0.3 WSW 11 15 6 8 1017.3 - 5.0
27/12:00am 10.1 8.4 9.7 97 0.2 WSW 9 15 5 8 1017.1 1017.2 4.8
 
Date/Time
EST
Temp
°C
App
Temp
°C
Dew
Point
°C
Rel
Hum
%
Delta-T
°C
Wind Press
QNH
hPa
Press
MSL
hPa
Rain since
9am
mm
Dir  Spd
km/h
Gust
km/h
Spd
kts
Gust
kts
26/11:51pm 10.2 8.5 9.7 97 0.3 WSW 9 11 5 6 1016.9 - 4.8
26/11:50pm 10.2 8.5 9.7 97 0.3 WSW 9 11 5 6 1017.0 - 4.8
26/11:37pm 10.2 8.5 9.8 97 0.2 W 9 13 5 7 1016.8 - 4.6
26/11:30pm 10.3 8.6 9.7 96 0.3 W 9 15 5 8 1016.9 - 4.4
26/11:26pm 10.3 9.0 9.8 97 0.3 W 7 13 4 7 1016.8 - 4.4
26/11:00pm 10.4 9.1 10.0 97 0.2 W 7 9 4 5 1016.6 - 4.4
26/10:31pm 10.5 8.8 9.9 96 0.3 W 9 13 5 7 1016.8 - 3.8
26/10:30pm 10.5 8.8 9.9 96 0.3 W 9 13 5 7 1016.8 - 3.8
26/10:14pm 10.6 8.5 9.9 95 0.4 W 11 15 6 8 1017.0 - 3.6
26/10:00pm 10.7 8.6 9.9 95 0.4 W 11 15 6 8 1016.7 - 3.0
26/09:30pm 10.8 9.1 10.0 95 0.4 WNW 9 11 5 6 1016.0 - 2.2
26/09:00pm 11.1 9.7 9.7 91 0.7 NW 7 9 4 5 1015.5 1015.6 1.4
26/08:30pm 11.1 11.0 9.6 90 0.8 CALM 0 2 0 1 1015.5 - 1.2
26/08:00pm 11.1 11.1 9.9 92 0.6 CALM 0 0 0 0 1015.4 - 0.8
26/07:30pm 11.5 10.1 9.0 85 1.3 N 6 9 3 5 1015.3 - 0.6
26/07:00pm 11.5 9.5 8.8 83 1.4 NE 9 11 5 6 1015.2 - 0.4
26/06:30pm 11.8 10.1 8.4 80 1.7 NNE 7 9 4 5 1015.6 - 0.2
26/06:00pm 11.9 9.0 8.1 77 1.9 NNE 13 19 7 10 1015.3 1015.3 0.0
26/05:30pm 12.0 10.2 7.9 76 2.0 NE 7 11 4 6 1015.2 - 0.0
26/05:00pm 12.2 9.9 7.3 72 2.4 NNE 9 13 5 7 1015.1 - 0.0
26/04:30pm 12.9 8.8 6.2 64 3.2 NNE 17 24 9 13 1014.7 - 0.0
26/04:00pm 13.5 10.6 4.7 55 4.1 N 9 11 5 6 1015.4 - 0.0
26/03:30pm 13.4 10.0 3.9 52 4.4 NNW 11 15 6 8 1016.0 - 0.0

Other Formats:

Comma delimited format used in spreadsheet applications
http://www.bom.gov.au/fwo/IDQ60801/IDQ60801.94510.axf

JavaScript Object Notation format (JSON) in row-major order
http://www.bom.gov.au/fwo/IDQ60801/IDQ60801.94510.json